sensor_id;sensor_type;location;lat;lon;timestamp;pressure;altitude;pressure_sealevel;temperature;humidity
79639;BME280;69114;49.108;8.280;2023-09-07T00:00:14;100697.69;;;16.35;76.19
79639;BME280;69114;49.108;8.280;2023-09-07T00:02:40;100695.50;;;16.41;75.83
79639;BME280;69114;49.108;8.280;2023-09-07T00:05:06;100701.78;;;16.37;75.96
79639;BME280;69114;49.108;8.280;2023-09-07T00:07:32;100710.06;;;16.43;76.21
79639;BME280;69114;49.108;8.280;2023-09-07T00:09:57;100702.09;;;16.45;76.23
79639;BME280;69114;49.108;8.280;2023-09-07T00:12:23;100697.84;;;16.38;76.75
79639;BME280;69114;49.108;8.280;2023-09-07T00:14:48;100709.19;;;16.42;76.87
79639;BME280;69114;49.108;8.280;2023-09-07T00:17:13;100699.47;;;16.39;76.57
79639;BME280;69114;49.108;8.280;2023-09-07T00:19:39;100703.13;;;16.40;76.36
79639;BME280;69114;49.108;8.280;2023-09-07T00:22:04;100688.22;;;16.39;76.37
79639;BME280;69114;49.108;8.280;2023-09-07T00:24:30;100696.19;;;16.37;76.63
79639;BME280;69114;49.108;8.280;2023-09-07T00:26:57;100694.53;;;16.36;76.92
79639;BME280;69114;49.108;8.280;2023-09-07T00:29:22;100690.44;;;16.34;76.74
79639;BME280;69114;49.108;8.280;2023-09-07T00:31:47;100686.03;;;16.24;77.38
79639;BME280;69114;49.108;8.280;2023-09-07T00:34:13;100683.69;;;16.26;76.70
79639;BME280;69114;49.108;8.280;2023-09-07T00:36:38;100684.53;;;16.27;77.56
79639;BME280;69114;49.108;8.280;2023-09-07T00:39:03;100679.31;;;16.17;77.66
79639;BME280;69114;49.108;8.280;2023-09-07T00:41:30;100688.97;;;16.07;78.13
79639;BME280;69114;49.108;8.280;2023-09-07T00:43:55;100691.63;;;16.03;78.48
79639;BME280;69114;49.108;8.280;2023-09-07T00:46:20;100690.81;;;16.03;78.31
79639;BME280;69114;49.108;8.280;2023-09-07T00:48:48;100691.00;;;15.98;78.12
79639;BME280;69114;49.108;8.280;2023-09-07T00:51:13;100690.03;;;15.94;78.68
79639;BME280;69114;49.108;8.280;2023-09-07T00:53:39;100688.41;;;15.93;78.79
79639;BME280;69114;49.108;8.280;2023-09-07T00:56:05;100691.34;;;15.96;78.80
79639;BME280;69114;49.108;8.280;2023-09-07T00:58:31;100685.19;;;16.03;78.40
79639;BME280;69114;49.108;8.280;2023-09-07T01:00:57;100685.19;;;16.03;78.49
79639;BME280;69114;49.108;8.280;2023-09-07T01:03:22;100686.56;;;15.97;78.67
79639;BME280;69114;49.108;8.280;2023-09-07T01:05:53;100680.25;;;16.00;78.54
79639;BME280;69114;49.108;8.280;2023-09-07T01:08:32;100680.59;;;15.98;78.10
79639;BME280;69114;49.108;8.280;2023-09-07T01:10:59;100688.19;;;15.98;78.29
79639;BME280;69114;49.108;8.280;2023-09-07T01:13:25;100680.50;;;15.86;78.84
79639;BME280;69114;49.108;8.280;2023-09-07T01:15:50;100682.81;;;15.84;78.96
79639;BME280;69114;49.108;8.280;2023-09-07T01:18:16;100680.06;;;15.75;79.47
79639;BME280;69114;49.108;8.280;2023-09-07T01:20:44;100685.41;;;15.68;79.70
79639;BME280;69114;49.108;8.280;2023-09-07T01:23:10;100682.94;;;15.67;79.58
79639;BME280;69114;49.108;8.280;2023-09-07T01:25:37;100678.31;;;15.62;79.88
79639;BME280;69114;49.108;8.280;2023-09-07T01:28:03;100685.75;;;15.58;79.88
79639;BME280;69114;49.108;8.280;2023-09-07T01:30:28;100683.78;;;15.50;80.60
79639;BME280;69114;49.108;8.280;2023-09-07T01:32:54;100684.81;;;15.45;80.64
79639;BME280;69114;49.108;8.280;2023-09-07T01:35:19;100683.47;;;15.43;81.09
79639;BME280;69114;49.108;8.280;2023-09-07T01:37:47;100678.84;;;15.47;80.80
79639;BME280;69114;49.108;8.280;2023-09-07T01:40:12;100682.81;;;15.46;81.01
79639;BME280;69114;49.108;8.280;2023-09-07T01:42:41;100689.94;;;15.43;80.87
79639;BME280;69114;49.108;8.280;2023-09-07T01:45:06;100683.97;;;15.45;80.77
79639;BME280;69114;49.108;8.280;2023-09-07T01:47:32;100684.00;;;15.36;80.89
79639;BME280;69114;49.108;8.280;2023-09-07T01:49:57;100679.59;;;15.26;81.50
79639;BME280;69114;49.108;8.280;2023-09-07T01:52:23;100687.81;;;15.31;81.43
79639;BME280;69114;49.108;8.280;2023-09-07T01:54:48;100680.56;;;15.30;81.46
79639;BME280;69114;49.108;8.280;2023-09-07T01:57:13;100678.94;;;15.29;81.35
79639;BME280;69114;49.108;8.280;2023-09-07T01:59:38;100683.84;;;15.32;81.31
79639;BME280;69114;49.108;8.280;2023-09-07T02:02:04;100684.84;;;15.28;81.46
79639;BME280;69114;49.108;8.280;2023-09-07T02:04:30;100678.59;;;15.31;81.14
79639;BME280;69114;49.108;8.280;2023-09-07T02:06:55;100677.13;;;15.25;80.87
79639;BME280;69114;49.108;8.280;2023-09-07T02:09:20;100667.19;;;15.27;81.25
79639;BME280;69114;49.108;8.280;2023-09-07T02:11:45;100665.88;;;15.33;80.79
79639;BME280;69114;49.108;8.280;2023-09-07T02:14:11;100676.22;;;15.42;80.32
79639;BME280;69114;49.108;8.280;2023-09-07T02:16:36;100672.25;;;15.43;79.95
79639;BME280;69114;49.108;8.280;2023-09-07T02:19:03;100675.06;;;15.43;80.37
79639;BME280;69114;49.108;8.280;2023-09-07T02:21:29;100675.41;;;15.41;80.81
79639;BME280;69114;49.108;8.280;2023-09-07T02:23:54;100683.81;;;15.41;80.82
79639;BME280;69114;49.108;8.280;2023-09-07T02:26:20;100682.03;;;15.36;80.53
79639;BME280;69114;49.108;8.280;2023-09-07T02:28:45;100690.44;;;15.36;81.37
79639;BME280;69114;49.108;8.280;2023-09-07T02:31:10;100681.84;;;15.42;80.92
79639;BME280;69114;49.108;8.280;2023-09-07T02:33:36;100672.78;;;15.36;80.83
79639;BME280;69114;49.108;8.280;2023-09-07T02:36:01;100679.38;;;15.40;80.81
79639;BME280;69114;49.108;8.280;2023-09-07T02:38:28;100683.47;;;15.43;80.69
79639;BME280;69114;49.108;8.280;2023-09-07T02:40:56;100684.66;;;15.42;80.59
79639;BME280;69114;49.108;8.280;2023-09-07T02:43:22;100690.22;;;15.50;79.94
79639;BME280;69114;49.108;8.280;2023-09-07T02:45:49;100683.13;;;15.53;80.12
79639;BME280;69114;49.108;8.280;2023-09-07T02:48:15;100678.47;;;15.57;79.94
79639;BME280;69114;49.108;8.280;2023-09-07T02:50:40;100670.72;;;15.54;79.82
79639;BME280;69114;49.108;8.280;2023-09-07T02:53:06;100670.22;;;15.52;79.50
79639;BME280;69114;49.108;8.280;2023-09-07T02:55:31;100675.84;;;15.52;79.59
79639;BME280;69114;49.108;8.280;2023-09-07T02:57:57;100673.03;;;15.52;79.59
79639;BME280;69114;49.108;8.280;2023-09-07T03:00:22;100671.22;;;15.56;79.56
79639;BME280;69114;49.108;8.280;2023-09-07T03:02:49;100670.53;;;15.59;79.48
79639;BME280;69114;49.108;8.280;2023-09-07T03:05:16;100673.00;;;15.60;79.37
79639;BME280;69114;49.108;8.280;2023-09-07T03:07:41;100676.00;;;15.55;79.00
79639;BME280;69114;49.108;8.280;2023-09-07T03:10:06;100673.53;;;15.54;80.09
79639;BME280;69114;49.108;8.280;2023-09-07T03:12:33;100670.94;;;15.49;79.96
79639;BME280;69114;49.108;8.280;2023-09-07T03:14:59;100658.91;;;15.40;80.41
79639;BME280;69114;49.108;8.280;2023-09-07T03:17:28;100673.59;;;15.36;80.46
79639;BME280;69114;49.108;8.280;2023-09-07T03:19:53;100673.13;;;15.34;80.52
79639;BME280;69114;49.108;8.280;2023-09-07T03:22:19;100665.56;;;15.26;80.64
79639;BME280;69114;49.108;8.280;2023-09-07T03:24:45;100668.84;;;15.28;80.57
79639;BME280;69114;49.108;8.280;2023-09-07T03:27:10;100668.84;;;15.28;80.41
79639;BME280;69114;49.108;8.280;2023-09-07T03:29:36;100674.44;;;15.28;80.31
79639;BME280;69114;49.108;8.280;2023-09-07T03:32:02;100678.09;;;15.29;80.25
79639;BME280;69114;49.108;8.280;2023-09-07T03:34:28;100672.16;;;15.30;80.16
79639;BME280;69114;49.108;8.280;2023-09-07T03:36:53;100674.97;;;15.30;80.23
79639;BME280;69114;49.108;8.280;2023-09-07T03:39:18;100675.13;;;15.25;80.74
79639;BME280;69114;49.108;8.280;2023-09-07T03:41:46;100668.19;;;15.23;80.58
79639;BME280;69114;49.108;8.280;2023-09-07T03:44:11;100675.63;;;15.19;80.53
79639;BME280;69114;49.108;8.280;2023-09-07T03:46:37;100678.13;;;15.20;80.55
79639;BME280;69114;49.108;8.280;2023-09-07T03:49:02;100673.81;;;15.23;80.72
79639;BME280;69114;49.108;8.280;2023-09-07T03:51:28;100669.72;;;15.20;80.70
79639;BME280;69114;49.108;8.280;2023-09-07T03:53:53;100666.22;;;15.23;80.35
79639;BME280;69114;49.108;8.280;2023-09-07T03:56:18;100666.03;;;15.28;80.54
79639;BME280;69114;49.108;8.280;2023-09-07T03:58:44;100666.91;;;15.20;80.56
79639;BME280;69114;49.108;8.280;2023-09-07T04:01:09;100661.63;;;15.19;80.71
79639;BME280;69114;49.108;8.280;2023-09-07T04:03:34;100669.91;;;15.15;80.92
79639;BME280;69114;49.108;8.280;2023-09-07T04:06:00;100669.91;;;15.15;81.06
79639;BME280;69114;49.108;8.280;2023-09-07T04:08:25;100663.09;;;15.25;80.24
79639;BME280;69114;49.108;8.280;2023-09-07T04:10:50;100667.53;;;15.26;80.54
79639;BME280;69114;49.108;8.280;2023-09-07T04:13:16;100669.91;;;15.15;80.64
79639;BME280;69114;49.108;8.280;2023-09-07T04:15:42;100665.13;;;15.07;80.83
79639;BME280;69114;49.108;8.280;2023-09-07T04:18:09;100678.19;;;14.94;81.32
79639;BME280;69114;49.108;8.280;2023-09-07T04:20:34;100669.78;;;14.85;82.01
79639;BME280;69114;49.108;8.280;2023-09-07T04:23:00;100670.78;;;14.81;81.71
79639;BME280;69114;49.108;8.280;2023-09-07T04:25:25;100670.13;;;14.75;81.88
79639;BME280;69114;49.108;8.280;2023-09-07T04:27:51;100667.66;;;14.74;82.31
79639;BME280;69114;49.108;8.280;2023-09-07T04:30:16;100677.38;;;14.85;81.89
79639;BME280;69114;49.108;8.280;2023-09-07T04:32:42;100669.66;;;14.82;82.27
79639;BME280;69114;49.108;8.280;2023-09-07T04:35:07;100672.94;;;14.84;82.33
79639;BME280;69114;49.108;8.280;2023-09-07T04:37:32;100668.16;;;14.84;82.46
79639;BME280;69114;49.108;8.280;2023-09-07T04:39:58;100665.84;;;14.87;82.05
79639;BME280;69114;49.108;8.280;2023-09-07T04:42:23;100673.75;;;14.84;82.23
79639;BME280;69114;49.108;8.280;2023-09-07T04:44:48;100673.44;;;14.77;82.10
79639;BME280;69114;49.108;8.280;2023-09-07T04:47:14;100673.44;;;14.77;82.12
79639;BME280;69114;49.108;8.280;2023-09-07T04:49:42;100673.78;;;14.67;82.36
79639;BME280;69114;49.108;8.280;2023-09-07T04:52:07;100674.94;;;14.66;82.72
79639;BME280;69114;49.108;8.280;2023-09-07T04:54:34;100681.53;;;14.70;82.90
79639;BME280;69114;49.108;8.280;2023-09-07T04:56:59;100684.31;;;14.70;82.69
79639;BME280;69114;49.108;8.280;2023-09-07T04:59:25;100672.94;;;14.67;82.60
79639;BME280;69114;49.108;8.280;2023-09-07T05:01:50;100676.25;;;14.69;82.67
79639;BME280;69114;49.108;8.280;2023-09-07T05:04:15;100678.59;;;14.58;82.70
79639;BME280;69114;49.108;8.280;2023-09-07T05:06:41;100682.53;;;14.66;83.08
79639;BME280;69114;49.108;8.280;2023-09-07T05:09:07;100682.34;;;14.62;82.70
79639;BME280;69114;49.108;8.280;2023-09-07T05:11:32;100679.53;;;14.62;82.94
79639;BME280;69114;49.108;8.280;2023-09-07T05:14:00;100678.41;;;14.63;82.89
79639;BME280;69114;49.108;8.280;2023-09-07T05:16:26;100671.00;;;14.67;83.12
79639;BME280;69114;49.108;8.280;2023-09-07T05:18:52;100673.78;;;14.67;82.79
79639;BME280;69114;49.108;8.280;2023-09-07T05:21:17;100663.41;;;14.68;82.61
79639;BME280;69114;49.108;8.280;2023-09-07T05:23:43;100674.75;;;14.71;82.82
79639;BME280;69114;49.108;8.280;2023-09-07T05:26:08;100675.09;;;14.78;82.55
79639;BME280;69114;49.108;8.280;2023-09-07T05:28:34;100684.50;;;14.82;82.60
79639;BME280;69114;49.108;8.280;2023-09-07T05:30:59;100681.34;;;14.84;82.70
79639;BME280;69114;49.108;8.280;2023-09-07T05:35:49;100689.72;;;15.01;82.40
79639;BME280;69114;49.108;8.280;2023-09-07T05:38:15;100694.81;;;15.08;82.27
79639;BME280;69114;49.108;8.280;2023-09-07T05:40:42;100693.97;;;15.16;81.75
79639;BME280;69114;49.108;8.280;2023-09-07T05:43:07;100698.75;;;15.24;81.71
79639;BME280;69114;49.108;8.280;2023-09-07T05:45:35;100703.84;;;15.31;81.40
79639;BME280;69114;49.108;8.280;2023-09-07T05:48:02;100706.94;;;15.38;81.20
79639;BME280;69114;49.108;8.280;2023-09-07T05:50:28;100698.69;;;15.42;81.32
79639;BME280;69114;49.108;8.280;2023-09-07T05:52:53;100698.84;;;15.45;80.93
79639;BME280;69114;49.108;8.280;2023-09-07T05:55:19;100705.09;;;15.51;80.97
79639;BME280;69114;49.108;8.280;2023-09-07T05:57:44;100710.50;;;15.56;80.64
79639;BME280;69114;49.108;8.280;2023-09-07T06:00:11;100711.50;;;15.60;80.94
79639;BME280;69114;49.108;8.280;2023-09-07T06:02:36;100707.03;;;15.68;80.76
79639;BME280;69114;49.108;8.280;2023-09-07T06:05:02;100707.13;;;15.80;79.93
79639;BME280;69114;49.108;8.280;2023-09-07T06:07:27;100711.06;;;15.87;79.96
79639;BME280;69114;49.108;8.280;2023-09-07T06:09:53;100709.03;;;15.97;79.86
79639;BME280;69114;49.108;8.280;2023-09-07T06:12:18;100710.47;;;16.03;79.46
79639;BME280;69114;49.108;8.280;2023-09-07T06:14:45;100715.06;;;16.07;79.24
79639;BME280;69114;49.108;8.280;2023-09-07T06:17:11;100714.63;;;16.26;78.74
79639;BME280;69114;49.108;8.280;2023-09-07T06:19:36;100720.34;;;16.38;77.99
79639;BME280;69114;49.108;8.280;2023-09-07T06:22:02;100726.97;;;16.55;77.82
79639;BME280;69114;49.108;8.280;2023-09-07T06:24:27;100723.06;;;16.68;77.32
79639;BME280;69114;49.108;8.280;2023-09-07T06:26:53;100717.66;;;16.84;76.60
79639;BME280;69114;49.108;8.280;2023-09-07T06:29:18;100720.03;;;16.94;76.07
79639;BME280;69114;49.108;8.280;2023-09-07T06:31:43;100711.44;;;17.11;75.84
79639;BME280;69114;49.108;8.280;2023-09-07T06:34:08;100727.50;;;17.23;75.23
79639;BME280;69114;49.108;8.280;2023-09-07T06:36:35;100723.34;;;17.29;74.30
79639;BME280;69114;49.108;8.280;2023-09-07T06:39:00;100723.69;;;17.40;74.11
79639;BME280;69114;49.108;8.280;2023-09-07T06:41:26;100717.97;;;17.49;73.97
79639;BME280;69114;49.108;8.280;2023-09-07T06:43:52;100722.69;;;17.57;73.69
79639;BME280;69114;49.108;8.280;2023-09-07T06:46:17;100727.63;;;17.72;72.93
79639;BME280;69114;49.108;8.280;2023-09-07T06:48:42;100734.34;;;17.80;73.15
79639;BME280;69114;49.108;8.280;2023-09-07T06:51:08;100723.91;;;17.92;72.40
79639;BME280;69114;49.108;8.280;2023-09-07T06:53:34;100727.88;;;18.04;72.08
79639;BME280;69114;49.108;8.280;2023-09-07T06:56:00;100730.22;;;18.26;71.82
79639;BME280;69114;49.108;8.280;2023-09-07T06:58:26;100729.28;;;18.34;71.27
79639;BME280;69114;49.108;8.280;2023-09-07T07:00:51;100732.97;;;18.51;70.11
79639;BME280;69114;49.108;8.280;2023-09-07T07:03:17;100735.09;;;18.54;69.86
79639;BME280;69114;49.108;8.280;2023-09-07T07:05:42;100735.19;;;18.70;68.91
79639;BME280;69114;49.108;8.280;2023-09-07T07:08:07;100734.47;;;18.85;67.89
79639;BME280;69114;49.108;8.280;2023-09-07T07:10:33;100728.19;;;18.91;68.33
79639;BME280;69114;49.108;8.280;2023-09-07T07:12:58;100729.81;;;18.92;67.69
79639;BME280;69114;49.108;8.280;2023-09-07T07:15:23;100738.59;;;19.03;67.45
79639;BME280;69114;49.108;8.280;2023-09-07T07:17:49;100727.09;;;19.24;66.92
79639;BME280;69114;49.108;8.280;2023-09-07T07:20:14;100732.66;;;19.36;66.89
79639;BME280;69114;49.108;8.280;2023-09-07T07:22:39;100733.56;;;19.40;66.21
79639;BME280;69114;49.108;8.280;2023-09-07T07:25:05;100727.81;;;19.37;66.33
79639;BME280;69114;49.108;8.280;2023-09-07T07:27:31;100729.66;;;19.45;65.55
79639;BME280;69114;49.108;8.280;2023-09-07T07:29:56;100727.88;;;19.53;65.84
79639;BME280;69114;49.108;8.280;2023-09-07T07:32:22;100740.00;;;19.69;65.75
79639;BME280;69114;49.108;8.280;2023-09-07T07:34:47;100740.47;;;19.87;65.17
79639;BME280;69114;49.108;8.280;2023-09-07T07:37:12;100738.66;;;19.94;64.68
79639;BME280;69114;49.108;8.280;2023-09-07T07:39:38;100733.28;;;19.89;65.07
79639;BME280;69114;49.108;8.280;2023-09-07T07:42:03;100737.06;;;20.13;64.29
79639;BME280;69114;49.108;8.280;2023-09-07T07:44:29;100729.09;;;20.34;63.97
79639;BME280;69114;49.108;8.280;2023-09-07T07:46:55;100732.94;;;20.26;63.11
79639;BME280;69114;49.108;8.280;2023-09-07T07:49:20;100725.88;;;20.36;63.38
79639;BME280;69114;49.108;8.280;2023-09-07T07:51:45;100726.03;;;20.59;62.79
79639;BME280;69114;49.108;8.280;2023-09-07T07:54:11;100730.59;;;20.83;62.25
79639;BME280;69114;49.108;8.280;2023-09-07T07:56:38;100730.06;;;20.77;61.58
79639;BME280;69114;49.108;8.280;2023-09-07T07:59:04;100733.19;;;20.91;61.71
79639;BME280;69114;49.108;8.280;2023-09-07T08:01:29;100729.78;;;21.02;61.66
79639;BME280;69114;49.108;8.280;2023-09-07T08:03:54;100723.66;;;21.38;61.40
79639;BME280;69114;49.108;8.280;2023-09-07T08:06:20;100726.28;;;21.51;60.49
79639;BME280;69114;49.108;8.280;2023-09-07T08:08:48;100727.50;;;21.30;60.79
79639;BME280;69114;49.108;8.280;2023-09-07T08:11:13;100722.31;;;21.32;59.82
79639;BME280;69114;49.108;8.280;2023-09-07T08:13:39;100726.09;;;21.40;60.12
79639;BME280;69114;49.108;8.280;2023-09-07T08:16:06;100729.81;;;21.67;59.53
79639;BME280;69114;49.108;8.280;2023-09-07T08:18:34;100722.38;;;21.82;58.98
79639;BME280;69114;49.108;8.280;2023-09-07T08:21:00;100728.94;;;21.86;58.29
79639;BME280;69114;49.108;8.280;2023-09-07T08:23:26;100725.31;;;22.12;58.15
79639;BME280;69114;49.108;8.280;2023-09-07T08:25:52;100724.69;;;22.22;58.26
79639;BME280;69114;49.108;8.280;2023-09-07T08:28:17;100723.97;;;22.29;58.12
79639;BME280;69114;49.108;8.280;2023-09-07T08:30:43;100726.59;;;22.41;57.42
79639;BME280;69114;49.108;8.280;2023-09-07T08:33:09;100719.94;;;22.60;57.08
79639;BME280;69114;49.108;8.280;2023-09-07T08:35:34;100717.75;;;22.76;56.45
79639;BME280;69114;49.108;8.280;2023-09-07T08:38:01;100721.75;;;22.71;56.25
79639;BME280;69114;49.108;8.280;2023-09-07T08:40:29;100723.00;;;23.04;55.48
79639;BME280;69114;49.108;8.280;2023-09-07T08:42:55;100722.66;;;23.09;54.91
79639;BME280;69114;49.108;8.280;2023-09-07T08:45:22;100718.50;;;23.37;54.89
79639;BME280;69114;49.108;8.280;2023-09-07T08:47:48;100725.91;;;23.11;54.97
79639;BME280;69114;49.108;8.280;2023-09-07T08:50:15;100719.16;;;23.23;55.42
79639;BME280;69114;49.108;8.280;2023-09-07T08:52:43;100725.09;;;23.48;54.35
79639;BME280;69114;49.108;8.280;2023-09-07T08:55:11;100718.53;;;23.44;54.30
79639;BME280;69114;49.108;8.280;2023-09-07T09:00:12;100719.78;;;23.84;53.29
79639;BME280;69114;49.108;8.280;2023-09-07T09:02:42;100730.78;;;23.89;53.10
79639;BME280;69114;49.108;8.280;2023-09-07T09:05:09;100724.75;;;23.97;51.73
79639;BME280;69114;49.108;8.280;2023-09-07T09:07:37;100725.66;;;24.09;51.92
79639;BME280;69114;49.108;8.280;2023-09-07T09:10:04;100720.91;;;24.27;52.20
79639;BME280;69114;49.108;8.280;2023-09-07T09:12:30;100733.25;;;24.42;52.60
79639;BME280;69114;49.108;8.280;2023-09-07T09:14:55;100727.13;;;24.36;51.93
79639;BME280;69114;49.108;8.280;2023-09-07T09:17:20;100722.34;;;24.58;51.07
79639;BME280;69114;49.108;8.280;2023-09-07T09:19:46;100723.59;;;24.61;51.27
79639;BME280;69114;49.108;8.280;2023-09-07T09:22:11;100728.59;;;24.85;52.23
79639;BME280;69114;49.108;8.280;2023-09-07T09:24:37;100717.19;;;24.85;51.04
79639;BME280;69114;49.108;8.280;2023-09-07T09:27:03;100715.59;;;24.91;49.71
79639;BME280;69114;49.108;8.280;2023-09-07T09:29:33;100720.91;;;25.00;50.67
79639;BME280;69114;49.108;8.280;2023-09-07T09:32:00;100715.44;;;24.63;50.00
79639;BME280;69114;49.108;8.280;2023-09-07T09:34:31;100709.75;;;24.63;51.29
79639;BME280;69114;49.108;8.280;2023-09-07T09:36:57;100700.44;;;24.73;50.30
79639;BME280;69114;49.108;8.280;2023-09-07T09:39:23;100707.47;;;25.00;49.84
79639;BME280;69114;49.108;8.280;2023-09-07T09:41:49;100703.00;;;25.07;49.73
79639;BME280;69114;49.108;8.280;2023-09-07T09:44:16;100707.56;;;25.18;50.10
79639;BME280;69114;49.108;8.280;2023-09-07T09:46:42;100702.34;;;25.45;49.35
79639;BME280;69114;49.108;8.280;2023-09-07T09:49:08;100699.13;;;25.75;48.96
79639;BME280;69114;49.108;8.280;2023-09-07T09:51:36;100692.97;;;25.63;48.60
79639;BME280;69114;49.108;8.280;2023-09-07T09:54:03;100697.84;;;25.37;49.18
79639;BME280;69114;49.108;8.280;2023-09-07T09:56:28;100701.91;;;25.43;48.72
79639;BME280;69114;49.108;8.280;2023-09-07T09:58:54;100698.25;;;25.36;48.78
79639;BME280;69114;49.108;8.280;2023-09-07T10:01:19;100699.50;;;25.60;49.06
79639;BME280;69114;49.108;8.280;2023-09-07T10:03:46;100688.13;;;25.88;47.74
79639;BME280;69114;49.108;8.280;2023-09-07T10:06:33;100694.63;;;26.21;47.05
79639;BME280;69114;49.108;8.280;2023-09-07T10:09:03;100687.66;;;26.33;46.84
79639;BME280;69114;49.108;8.280;2023-09-07T10:11:33;100679.94;;;26.08;46.89
79639;BME280;69114;49.108;8.280;2023-09-07T10:14:02;100686.44;;;26.23;47.46
79639;BME280;69114;49.108;8.280;2023-09-07T10:16:28;100681.97;;;26.22;46.73
79639;BME280;69114;49.108;8.280;2023-09-07T10:18:54;100691.25;;;26.62;46.72
79639;BME280;69114;49.108;8.280;2023-09-07T10:21:23;100681.53;;;26.27;46.17
79639;BME280;69114;49.108;8.280;2023-09-07T10:23:50;100691.22;;;26.76;46.40
79639;BME280;69114;49.108;8.280;2023-09-07T10:26:18;100682.94;;;27.03;45.40
79639;BME280;69114;49.108;8.280;2023-09-07T10:28:44;100682.94;;;26.99;45.83
79639;BME280;69114;49.108;8.280;2023-09-07T10:31:16;100673.13;;;27.11;46.31
79639;BME280;69114;49.108;8.280;2023-09-07T10:33:42;100674.56;;;27.37;44.02
79639;BME280;69114;49.108;8.280;2023-09-07T10:36:08;100674.03;;;27.53;44.60
79639;BME280;69114;49.108;8.280;2023-09-07T10:38:34;100675.63;;;27.57;44.18
79639;BME280;69114;49.108;8.280;2023-09-07T10:41:04;100673.47;;;27.79;43.38
79639;BME280;69114;49.108;8.280;2023-09-07T10:43:30;100671.47;;;27.73;43.54
79639;BME280;69114;49.108;8.280;2023-09-07T10:45:56;100673.91;;;27.74;43.10
79639;BME280;69114;49.108;8.280;2023-09-07T10:48:23;100669.00;;;27.75;43.42
79639;BME280;69114;49.108;8.280;2023-09-07T10:50:49;100661.97;;;28.24;42.96
79639;BME280;69114;49.108;8.280;2023-09-07T10:53:24;100669.97;;;28.02;42.76
79639;BME280;69114;49.108;8.280;2023-09-07T10:55:50;100653.47;;;27.17;44.38
79639;BME280;69114;49.108;8.280;2023-09-07T10:58:28;100661.88;;;27.38;44.47
79639;BME280;69114;49.108;8.280;2023-09-07T11:00:54;100655.06;;;28.18;42.95
79639;BME280;69114;49.108;8.280;2023-09-07T11:03:19;100650.81;;;28.33;42.69
79639;BME280;69114;49.108;8.280;2023-09-07T11:05:45;100651.47;;;28.48;42.47
79639;BME280;69114;49.108;8.280;2023-09-07T11:08:10;100651.91;;;28.81;41.87
79639;BME280;69114;49.108;8.280;2023-09-07T11:10:36;100641.84;;;29.00;41.39
79639;BME280;69114;49.108;8.280;2023-09-07T11:13:04;100645.75;;;29.13;41.13
79639;BME280;69114;49.108;8.280;2023-09-07T11:15:31;100645.59;;;28.97;40.40
79639;BME280;69114;49.108;8.280;2023-09-07T11:17:57;100639.00;;;28.66;41.18
79639;BME280;69114;49.108;8.280;2023-09-07T11:20:23;100622.81;;;27.73;42.67
79639;BME280;69114;49.108;8.280;2023-09-07T11:22:50;100629.44;;;28.07;43.41
79639;BME280;69114;49.108;8.280;2023-09-07T11:25:15;100623.81;;;28.99;41.26
79639;BME280;69114;49.108;8.280;2023-09-07T11:27:41;100624.53;;;30.28;39.15
79639;BME280;69114;49.108;8.280;2023-09-07T11:30:06;100623.69;;;30.71;38.22
79639;BME280;69114;49.108;8.280;2023-09-07T11:32:34;100618.22;;;31.13;36.45
79639;BME280;69114;49.108;8.280;2023-09-07T11:34:59;100616.03;;;31.36;36.07
79639;BME280;69114;49.108;8.280;2023-09-07T11:37:26;100617.34;;;31.16;36.16
79639;BME280;69114;49.108;8.280;2023-09-07T11:39:51;100620.41;;;31.25;36.30
79639;BME280;69114;49.108;8.280;2023-09-07T11:42:17;100611.59;;;31.81;35.04
79639;BME280;69114;49.108;8.280;2023-09-07T11:44:42;100613.78;;;31.77;34.60
79639;BME280;69114;49.108;8.280;2023-09-07T11:47:07;100614.81;;;32.16;34.33
79639;BME280;69114;49.108;8.280;2023-09-07T11:49:34;100623.47;;;31.99;35.32
79639;BME280;69114;49.108;8.280;2023-09-07T11:51:59;100622.00;;;32.24;34.81
79639;BME280;69114;49.108;8.280;2023-09-07T11:54:24;100617.03;;;32.24;34.87
79639;BME280;69114;49.108;8.280;2023-09-07T11:56:50;100621.31;;;32.91;33.34
79639;BME280;69114;49.108;8.280;2023-09-07T11:59:15;100613.81;;;32.51;33.71
79639;BME280;69114;49.108;8.280;2023-09-07T12:01:43;100615.88;;;33.18;33.30
79639;BME280;69114;49.108;8.280;2023-09-07T12:04:09;100614.41;;;33.99;31.69
79639;BME280;69114;49.108;8.280;2023-09-07T12:06:34;100613.59;;;34.11;31.36
79639;BME280;69114;49.108;8.280;2023-09-07T12:09:04;100609.06;;;33.76;31.30
79639;BME280;69114;49.108;8.280;2023-09-07T12:11:30;100611.28;;;34.06;31.16
79639;BME280;69114;49.108;8.280;2023-09-07T12:13:58;100604.31;;;34.17;30.05
79639;BME280;69114;49.108;8.280;2023-09-07T12:16:27;100605.00;;;34.21;30.29
79639;BME280;69114;49.108;8.280;2023-09-07T12:18:52;100607.56;;;34.19;30.65
79639;BME280;69114;49.108;8.280;2023-09-07T12:21:19;100597.31;;;33.92;30.37
79639;BME280;69114;49.108;8.280;2023-09-07T12:23:44;100597.94;;;34.44;30.52
79639;BME280;69114;49.108;8.280;2023-09-07T12:26:09;100588.63;;;35.24;29.40
79639;BME280;69114;49.108;8.280;2023-09-07T12:28:35;100595.66;;;34.60;29.14
79639;BME280;69114;49.108;8.280;2023-09-07T12:31:01;100585.91;;;34.67;29.69
79639;BME280;69114;49.108;8.280;2023-09-07T12:33:26;100589.38;;;34.84;29.28
79639;BME280;69114;49.108;8.280;2023-09-07T12:35:54;100580.25;;;35.75;27.68
79639;BME280;69114;49.108;8.280;2023-09-07T12:38:20;100584.16;;;34.26;28.84
79639;BME280;69114;49.108;8.280;2023-09-07T12:40:47;100573.13;;;34.11;29.94
79639;BME280;69114;49.108;8.280;2023-09-07T12:43:13;100579.97;;;34.05;29.48
79639;BME280;69114;49.108;8.280;2023-09-07T12:45:38;100581.66;;;34.81;28.89
79639;BME280;69114;49.108;8.280;2023-09-07T12:48:03;100574.56;;;35.13;28.85